< < Back
Terminal Aerodrome Forecast


Current Version              Previous Versions:   1  2  3  4  5  6  7  8  9  

Terminal Aerodrome Forecast

540
FTUS42 KFFC 291229 AAA
TAFCSG
TAF AMD
KCSG 291229Z 2912/3012 VRB04KT P6SM SCT025
     FM291400 03005KT P6SM SCT040 SCT250
     FM291900 24006KT P6SM VCSH SCT050
     FM300000 24003KT P6SM SCT080=

Latest METAR

336
SAUS70 KWBC 291600 RRM
MTRCSG
METAR KCSG 291551Z 00000KT 10SM CLR 26/22 A3000 RMK AO2 SLP154
T02610217


USA.gov is the U.S. government's official web portal to all federal, state and local government web resources and services.